Time;durP1;ratioP1;P1;durP2;ratioP2;P2;SDS_P1;SDS_P2;PMS_P1;PMS_P2;Temp;Humidity;BMP_temperature;BMP_pressure;BME280_temperature;BME280_humidity;BME280_pressure;Samples;Min_cycle;Max_cycle;Signal;HPM_P1;HPM_P2
2022/09/20 00:00:46;;;;;;;21.25;11.20;;;;;;;15.01;77.70;101856.44;5002918;28;20061;-45
2022/09/20 00:03:14;;;;;;;17.17;9.43;;;;;;;15.00;77.90;101854.81;5006882;28;20056;-45
2022/09/20 00:05:44;;;;;;;18.35;10.15;;;;;;;15.00;77.82;101849.25;5007106;28;20129;-45
2022/09/20 00:08:14;;;;;;;14.35;8.95;;;;;;;14.98;77.84;101851.56;5004366;28;20050;-46
2022/09/20 00:10:41;;;;;;;16.15;8.57;;;;;;;14.98;77.77;101853.53;5008037;28;20042;-46
2022/09/20 00:13:11;;;;;;;14.50;7.90;;;;;;;14.95;77.78;101849.47;5008887;28;20041;-43
2022/09/20 00:15:43;;;;;;;13.93;8.18;;;;;;;14.95;77.79;101848.66;4988964;28;20042;-46
2022/09/20 00:18:10;;;;;;;10.45;6.35;;;;;;;14.92;77.82;101852.97;5008399;28;20062;-48
2022/09/20 00:20:48;;;;;;;11.27;6.30;;;;;;;14.91;77.86;101851.31;4992764;28;20057;-45
2022/09/20 00:23:15;;;;;;;10.23;6.07;;;;;;;14.90;77.70;101848.91;5006786;28;20527;-44
2022/09/20 00:25:43;;;;;;;12.80;6.57;;;;;;;14.88;77.69;101852.00;5001245;28;20050;-43
2022/09/20 00:28:10;;;;;;;10.95;7.32;;;;;;;14.89;77.56;101853.66;4995717;28;20093;-45
2022/09/20 00:30:38;;;;;;;18.98;7.85;;;;;;;14.88;77.59;101857.59;5003283;28;20068;-45
2022/09/20 00:33:04;;;;;;;15.43;6.70;;;;;;;14.90;77.42;101858.09;5008598;28;20042;-48
2022/09/20 00:35:31;;;;;;;11.48;6.70;;;;;;;14.89;77.53;101853.66;5007296;28;20054;-46
2022/09/20 00:37:58;;;;;;;9.57;7.00;;;;;;;14.86;77.53;101857.13;4990076;28;20062;-48
2022/09/20 00:40:29;;;;;;;10.07;6.85;;;;;;;14.83;77.44;101860.59;5006660;28;20050;-44
2022/09/20 00:42:55;;;;;;;12.27;7.10;;;;;;;14.85;77.34;101858.28;5006915;28;20072;-45
2022/09/20 00:45:27;;;;;;;13.30;6.65;;;;;;;14.87;77.18;101853.19;5005773;28;20163;-44
2022/09/20 00:48:10;;;;;;;15.77;5.85;;;;;;;14.88;77.17;101857.59;5006607;28;20042;-48
2022/09/20 00:50:40;;;;;;;9.27;6.13;;;;;;;14.87;76.93;101861.56;5007628;28;20057;-49
2022/09/20 00:53:17;;;;;;;9.57;5.80;;;;;;;14.88;76.91;101852.00;4991602;28;20045;-43
2022/09/20 00:55:50;;;;;;;8.70;6.03;;;;;;;14.88;76.54;101862.38;5006258;28;20061;-44
2022/09/20 00:58:19;;;;;;;11.68;7.10;;;;;;;14.86;76.27;101851.56;5011461;28;20141;-50
2022/09/20 01:00:48;;;;;;;8.38;5.85;;;;;;;14.88;76.40;101857.59;5008486;28;20152;-44
2022/09/20 01:03:21;;;;;;;18.70;6.15;;;;;;;14.90;76.09;101854.47;5010906;28;20141;-45
2022/09/20 01:05:52;;;;;;;8.77;5.78;;;;;;;14.90;75.90;101855.28;5010277;28;20133;-46
2022/09/20 01:08:23;;;;;;;6.63;4.80;;;;;;;14.91;75.66;101856.91;5007660;28;20045;-45
2022/09/20 01:10:51;;;;;;;8.77;5.43;;;;;;;14.91;75.63;101865.25;5009907;28;20061;-45
2022/09/20 01:13:17;;;;;;;7.43;4.80;;;;;;;14.92;75.52;101858.53;5011015;28;20400;-45
2022/09/20 01:15:48;;;;;;;7.32;4.53;;;;;;;14.93;75.18;101862.94;5007325;28;20113;-45
2022/09/20 01:18:17;;;;;;;8.50;4.70;;;;;;;14.94;75.08;101866.53;5010760;28;20072;-44
2022/09/20 01:20:45;;;;;;;7.47;4.45;;;;;;;14.93;74.96;101862.94;5010564;28;20121;-44
2022/09/20 01:23:18;;;;;;;7.22;4.20;;;;;;;14.92;74.85;101872.47;5010667;28;20069;-43
2022/09/20 01:26:15;;;;;;;8.10;4.43;;;;;;;14.92;74.77;101868.88;5005822;28;20085;-44
2022/09/20 01:28:48;;;;;;;6.68;4.32;;;;;;;14.93;74.62;101864.94;5009634;28;20038;-46
2022/09/20 01:31:25;;;;;;;7.97;5.10;;;;;;;14.92;74.69;101869.69;5008686;28;20045;-48
2022/09/20 01:34:07;;;;;;;7.75;5.57;;;;;;;14.91;74.70;101873.63;5011652;28;20191;-44
2022/09/20 01:36:57;;;;;;;10.48;5.63;;;;;;;14.91;74.64;101865.25;5012066;28;20578;-44
2022/09/20 01:39:55;;;;;;;8.68;4.15;;;;;;;14.90;74.57;101863.66;5010061;28;20046;-45
2022/09/20 01:42:32;;;;;;;8.02;4.65;;;;;;;14.88;74.42;101868.75;5011531;28;20050;-45
2022/09/20 01:45:22;;;;;;;6.78;4.50;;;;;;;14.88;74.32;101868.75;5011524;28;20057;-47
2022/09/20 01:48:27;;;;;;;8.02;4.57;;;;;;;14.86;74.41;101865.50;5010931;28;20046;-49
2022/09/20 01:51:31;;;;;;;7.93;4.47;;;;;;;14.88;74.22;101870.75;4978562;28;20057;-44
2022/09/20 01:54:17;;;;;;;7.55;4.22;;;;;;;14.86;74.34;101857.13;5009205;28;20050;-52
2022/09/20 01:56:52;;;;;;;10.00;5.03;;;;;;;14.86;74.24;101861.88;5008285;28;20045;-46
2022/09/20 01:59:28;;;;;;;7.07;4.97;;;;;;;14.86;74.38;101868.28;5010263;28;20053;-45
2022/09/20 02:02:06;;;;;;;8.95;5.00;;;;;;;14.85;74.46;101869.44;5000875;28;20056;-45
2022/09/20 02:05:24;;;;;;;5.93;4.53;;;;;;;14.85;74.31;101869.44;5009269;28;20057;-45
2022/09/20 02:08:11;;;;;;;8.15;4.85;;;;;;;14.85;74.26;101863.84;4984221;28;20053;-44
2022/09/20 02:10:48;;;;;;;7.85;4.80;;;;;;;14.82;74.17;101861.78;5004947;28;20058;-45
2022/09/20 02:13:42;;;;;;;6.47;4.38;;;;;;;14.83;74.27;101866.19;5008942;28;20057;-44
2022/09/20 02:16:46;;;;;;;7.97;4.85;;;;;;;14.80;74.11;101869.66;5005717;28;20050;-46
2022/09/20 02:19:18;;;;;;;8.88;5.03;;;;;;;14.79;74.21;101875.59;5007364;28;20049;-45
2022/09/20 02:22:12;;;;;;;10.05;4.82;;;;;;;14.77;74.25;101867.59;5009175;28;20054;-50
2022/09/20 02:25:03;;;;;;;7.57;5.32;;;;;;;14.77;74.02;101870.38;5005319;28;20365;-44
2022/09/20 02:27:39;;;;;;;6.07;4.05;;;;;;;14.78;74.19;101869.19;5008349;28;20500;-51
2022/09/20 02:30:14;;;;;;;5.97;4.30;;;;;;;14.78;74.06;101855.25;5006971;28;20042;-44
2022/09/20 02:32:55;;;;;;;11.93;5.07;;;;;;;14.80;74.01;101866.09;5008877;28;20046;-46
2022/09/20 02:35:41;;;;;;;7.72;4.78;;;;;;;14.78;73.93;101858.03;5010554;28;20060;-43
2022/09/20 02:38:13;;;;;;;7.80;4.15;;;;;;;14.79;73.87;101868.06;4997819;28;20496;-46
2022/09/20 02:40:58;;;;;;;9.85;4.60;;;;;;;14.78;73.90;101868.38;5010615;28;20061;-50
2022/09/20 02:43:47;;;;;;;6.38;3.97;;;;;;;14.75;73.86;101860.69;5009539;28;20049;-45
2022/09/20 02:46:32;;;;;;;5.13;3.67;;;;;;;14.74;73.85;101857.13;5010339;28;20451;-44
2022/09/20 02:49:18;;;;;;;7.68;4.68;;;;;;;14.73;73.92;101861.06;5018429;28;20579;-48
2022/09/20 02:51:55;;;;;;;8.63;4.80;;;;;;;14.72;73.84;101859.44;5009476;28;20046;-43
2022/09/20 02:54:31;;;;;;;6.03;3.83;;;;;;;14.72;73.80;101855.84;5010064;28;20045;-49
2022/09/20 02:57:27;;;;;;;7.50;4.50;;;;;;;14.70;73.87;101845.03;5009913;28;20046;-45
2022/09/20 03:00:08;;;;;;;5.93;3.85;;;;;;;14.69;73.71;101850.97;5007823;28;20053;-43
2022/09/20 03:02:52;;;;;;;7.30;4.75;;;;;;;14.66;73.62;101846.91;4990513;23;20695;-46
2022/09/20 03:05:29;;;;;;;6.30;4.03;;;;;;;14.65;73.49;101853.63;4987127;28;20035;-51
2022/09/20 03:08:33;;;;;;;5.03;3.72;;;;;;;14.62;73.56;101851.50;4969255;28;20051;-43
2022/09/20 03:11:16;;;;;;;6.75;4.10;;;;;;;14.60;73.49;101851.06;4984826;28;20380;-45
2022/09/20 03:14:10;;;;;;;7.88;4.10;;;;;;;14.57;73.44;101851.75;4985702;28;20046;-43
2022/09/20 03:16:54;;;;;;;10.35;4.00;;;;;;;14.55;73.40;101834.56;4987185;28;20129;-47
2022/09/20 03:19:27;;;;;;;9.18;4.30;;;;;;;14.52;73.33;101843.59;4987472;28;20065;-46
2022/09/20 03:22:12;;;;;;;4.85;4.07;;;;;;;14.49;73.47;101842.31;4987808;28;20080;-52
2022/09/20 03:24:53;;;;;;;6.85;4.10;;;;;;;14.48;73.59;101842.69;4984067;28;20485;-44
2022/09/20 03:27:52;;;;;;;6.32;3.42;;;;;;;14.44;73.72;101838.94;4986309;28;20047;-45
2022/09/20 03:30:24;;;;;;;10.25;3.92;;;;;;;14.41;73.69;101839.63;4945738;28;20065;-44
2022/09/20 03:33:09;;;;;;;6.40;4.65;;;;;;;14.38;73.69;101831.97;4990220;28;20049;-46
2022/09/20 03:35:52;;;;;;;5.35;3.92;;;;;;;14.37;73.81;101833.13;4987527;28;20097;-46
2022/09/20 03:38:29;;;;;;;7.78;4.60;;;;;;;14.35;73.63;101832.66;4998716;28;20050;-45
2022/09/20 03:41:05;;;;;;;5.53;3.45;;;;;;;14.35;73.80;101829.88;4989516;28;20487;-44
2022/09/20 03:43:38;;;;;;;7.45;3.90;;;;;;;14.34;73.66;101833.81;4989769;28;20145;-44
2022/09/20 03:46:18;;;;;;;5.80;4.10;;;;;;;14.31;73.76;101828.91;4990560;28;20043;-45
2022/09/20 03:48:45;;;;;;;10.57;4.45;;;;;;;14.29;73.80;101829.25;4992300;28;20073;-44
2022/09/20 03:51:27;;;;;;;4.45;3.47;;;;;;;14.27;74.01;101819.63;4988517;28;20096;-51
2022/09/20 03:54:15;;;;;;;6.03;4.47;;;;;;;14.27;73.95;101827.97;4989689;28;20050;-44
2022/09/20 03:57:04;;;;;;;8.05;3.75;;;;;;;14.26;74.02;101826.34;4989579;28;20132;-47
2022/09/20 03:59:55;;;;;;;4.97;3.83;;;;;;;14.25;74.14;101821.91;4989171;28;20141;-43
2022/09/20 04:02:36;;;;;;;9.20;4.20;;;;;;;14.21;74.20;101821.81;4984370;28;20050;-46
2022/09/20 04:05:40;;;;;;;8.48;4.78;;;;;;;14.21;74.35;101820.97;4984792;28;20046;-45
2022/09/20 04:08:31;;;;;;;5.38;4.00;;;;;;;14.20;74.37;101824.91;4985620;28;20069;-45
2022/09/20 04:11:16;;;;;;;10.27;4.05;;;;;;;14.16;74.45;101819.25;4991434;28;20049;-53
2022/09/20 04:13:54;;;;;;;7.40;4.65;;;;;;;14.13;74.50;101811.56;4986420;28;20050;-48
2022/09/20 04:16:54;;;;;;;5.13;4.28;;;;;;;14.10;74.86;101814.22;4987743;28;20058;-47
2022/09/20 04:19:26;;;;;;;5.88;4.25;;;;;;;14.08;74.97;101817.34;4984293;28;20061;-47
2022/09/20 04:22:00;;;;;;;7.38;3.78;;;;;;;14.06;74.91;101818.84;4988314;28;20054;-45
2022/09/20 04:24:45;;;;;;;6.40;3.88;;;;;;;13.99;75.10;101811.84;4987990;28;20060;-46
2022/09/20 04:27:30;;;;;;;6.78;4.28;;;;;;;13.93;75.57;101809.63;4971322;28;20070;-44
2022/09/20 04:30:04;;;;;;;5.63;4.28;;;;;;;13.88;75.55;101805.09;4990289;28;20050;-45
2022/09/20 04:33:02;;;;;;;7.72;4.85;;;;;;;13.85;75.74;101804.94;4990969;28;20132;-46
2022/09/20 04:38:21;;;;;;;5.97;4.28;;;;;;;13.76;75.89;101805.03;4992327;28;20042;-44
2022/09/20 04:40:58;;;;;;;6.53;4.43;;;;;;;13.72;76.00;101801.28;4999237;28;20068;-46
2022/09/20 04:43:53;;;;;;;20.45;5.40;;;;;;;13.68;76.08;101803.16;4993699;28;20050;-45
2022/09/20 04:46:41;;;;;;;13.82;5.45;;;;;;;13.64;76.21;101810.53;4990333;28;20144;-44
2022/09/20 04:49:45;;;;;;;10.85;5.93;;;;;;;13.61;76.41;101805.63;4988444;28;20050;-44
2022/09/20 04:52:43;;;;;;;12.13;6.05;;;;;;;13.57;76.38;101804.72;4992278;28;20056;-46
2022/09/20 04:55:44;;;;;;;15.73;7.25;;;;;;;13.52;76.48;101799.34;4992360;28;20050;-48
2022/09/20 04:58:40;;;;;;;27.40;13.38;;;;;;;13.49;76.60;101799.19;4988868;28;20050;-46
2022/09/20 05:01:25;;;;;;;29.60;15.23;;;;;;;13.45;76.80;101803.84;4990624;28;20149;-46
2022/09/20 05:04:19;;;;;;;21.67;9.85;;;;;;;13.44;76.80;101814.13;4990790;28;20066;-44
2022/09/20 05:06:54;;;;;;;13.65;6.15;;;;;;;13.43;76.80;101804.16;4983865;28;20488;-46
2022/09/20 05:09:45;;;;;;;10.32;5.43;;;;;;;13.46;77.02;101806.25;4990747;28;20105;-47
2022/09/20 05:12:34;;;;;;;9.80;5.35;;;;;;;13.49;76.96;101804.78;4991791;28;20480;-46
2022/09/20 05:15:20;;;;;;;7.00;4.85;;;;;;;13.46;76.77;101813.78;4991475;28;20053;-43
2022/09/20 05:18:22;;;;;;;10.55;5.20;;;;;;;13.45;77.00;101810.19;4990568;28;20050;-43
2022/09/20 05:21:03;;;;;;;7.22;4.72;;;;;;;13.47;76.94;101812.66;4943861;29;20058;-46
2022/09/20 05:23:52;;;;;;;10.27;4.82;;;;;;;13.43;76.85;101818.88;4963497;28;20061;-50
2022/09/20 05:26:42;;;;;;;7.75;5.00;;;;;;;13.44;76.76;101814.13;4986960;28;20105;-44
2022/09/20 05:29:12;;;;;;;7.45;4.50;;;;;;;13.44;76.88;101819.69;4941501;28;20058;-48
2022/09/20 05:31:53;;;;;;;5.45;4.35;;;;;;;13.41;76.81;101814.81;4989738;28;20381;-45
2022/09/20 05:34:50;;;;;;;7.18;5.00;;;;;;;13.36;76.95;101823.34;4971923;28;20051;-44
2022/09/20 05:37:38;;;;;;;5.75;4.43;;;;;;;13.30;76.86;101819.97;4965263;28;20062;-43
2022/09/20 05:40:33;;;;;;;7.75;4.68;;;;;;;13.24;76.99;101820.47;4991636;28;20158;-45
2022/09/20 05:43:12;;;;;;;7.55;4.30;;;;;;;13.18;77.26;101813.50;4992028;28;20047;-46
2022/09/20 05:46:09;;;;;;;10.43;5.03;;;;;;;13.09;77.44;101823.84;4990540;28;20081;-50
2022/09/20 05:48:51;;;;;;;5.28;4.28;;;;;;;13.04;77.42;101827.63;4980886;28;20078;-46
2022/09/20 05:52:04;;;;;;;9.15;5.35;;;;;;;12.98;77.72;101826.16;4991989;28;20129;-49
2022/09/20 05:54:44;;;;;;;8.80;6.03;;;;;;;12.95;77.63;101817.66;4991837;28;20128;-45
2022/09/20 05:57:30;;;;;;;7.72;4.75;;;;;;;12.90;77.93;101821.47;4991664;28;20048;-44
2022/09/20 06:00:17;;;;;;;8.70;4.63;;;;;;;12.83;78.10;101827.56;4987508;28;20058;-44
2022/09/20 06:03:14;;;;;;;10.18;5.57;;;;;;;12.78;78.23;101824.97;5006213;28;20411;-46
2022/09/20 06:05:58;;;;;;;9.15;5.10;;;;;;;12.74;78.30;101821.22;4984022;28;20145;-47
2022/09/20 06:08:56;;;;;;;8.77;5.60;;;;;;;12.76;78.37;101824.47;4988198;28;20050;-43
2022/09/20 06:11:35;;;;;;;8.15;5.32;;;;;;;12.76;78.40;101832.81;4991073;28;20039;-43
2022/09/20 06:14:12;;;;;;;8.85;4.93;;;;;;;12.71;78.45;101833.00;4988822;28;20120;-44
2022/09/20 06:16:53;;;;;;;10.88;5.60;;;;;;;12.65;78.70;101826.00;4989931;28;20039;-45
2022/09/20 06:19:44;;;;;;;6.65;5.28;;;;;;;12.62;78.70;101832.22;4984662;28;21964;-50
2022/09/20 06:22:15;;;;;;;8.38;5.57;;;;;;;12.57;78.67;101829.63;4988642;28;20074;-48
2022/09/20 06:25:00;;;;;;;8.05;5.80;;;;;;;12.53;79.10;101823.09;4981307;28;20513;-48
2022/09/20 06:27:36;;;;;;;10.50;6.03;;;;;;;12.56;79.45;101828.00;4990331;28;20048;-46
2022/09/20 06:30:11;;;;;;;10.43;4.88;;;;;;;12.60;79.21;101828.16;4985073;28;20038;-52
2022/09/20 06:32:54;;;;;;;7.70;5.25;;;;;;;12.65;79.50;101830.75;4988980;28;20077;-50
2022/09/20 06:35:27;;;;;;;7.30;5.55;;;;;;;12.71;79.66;101827.44;4986640;28;20051;-48
2022/09/20 06:41:45;;;;;;;7.50;5.30;;;;;;;12.92;79.18;101821.94;4988056;28;20061;-48
2022/09/20 06:43:47;;;;;;;8.48;5.55;;;;;;;13.01;79.13;101827.47;4979667;28;20046;-48
2022/09/20 06:46:14;;;;;;;8.20;4.63;;;;;;;13.08;79.18;101825.03;4985137;28;20038;-50
2022/09/20 06:48:41;;;;;;;10.68;5.65;;;;;;;13.13;79.04;101835.94;4993061;28;20407;-44
2022/09/20 06:51:09;;;;;;;7.35;5.15;;;;;;;13.17;78.95;101825.75;4992437;28;20046;-45
2022/09/20 06:53:39;;;;;;;9.35;5.50;;;;;;;13.24;78.79;101834.38;5000842;28;20046;-45
2022/09/20 06:56:08;;;;;;;10.13;6.00;;;;;;;13.28;78.76;101838.13;4990811;28;20564;-44
2022/09/20 06:58:35;;;;;;;11.65;5.07;;;;;;;13.32;78.78;101842.69;4990311;28;20065;-48
2022/09/20 07:01:02;;;;;;;11.95;5.20;;;;;;;13.36;78.80;101840.03;4990879;28;20051;-50
2022/09/20 07:03:31;;;;;;;9.20;5.72;;;;;;;13.40;78.73;101835.41;4994493;28;20941;-51
2022/09/20 07:05:59;;;;;;;11.38;6.47;;;;;;;13.42;78.61;101845.06;4990841;28;20077;-46
2022/09/20 07:08:26;;;;;;;8.45;5.28;;;;;;;13.45;78.44;101843.56;4991325;28;20039;-46
2022/09/20 07:10:53;;;;;;;7.93;5.47;;;;;;;13.49;78.31;101841.75;4988029;28;20057;-46
2022/09/20 07:13:20;;;;;;;9.07;5.82;;;;;;;13.53;78.31;101839.13;4989402;28;20046;-47
2022/09/20 07:15:47;;;;;;;7.80;5.90;;;;;;;13.58;78.31;101841.69;4989895;28;20039;-44
2022/09/20 07:18:14;;;;;;;9.05;5.70;;;;;;;13.61;78.26;101841.81;4973428;28;20046;-44
2022/09/20 07:20:41;;;;;;;9.43;6.18;;;;;;;13.67;78.11;101851.59;4990118;28;20042;-46
2022/09/20 07:23:08;;;;;;;13.32;6.18;;;;;;;13.73;78.05;101850.25;4969016;28;20174;-49
2022/09/20 07:25:36;;;;;;;9.90;4.90;;;;;;;13.84;77.89;101854.25;4983488;28;20078;-44
2022/09/20 07:28:02;;;;;;;8.55;6.32;;;;;;;13.96;77.73;101848.72;4986686;28;20136;-44
2022/09/20 07:30:29;;;;;;;13.88;5.25;;;;;;;14.08;77.58;101844.38;4972676;28;20053;-45
2022/09/20 07:32:56;;;;;;;9.35;5.72;;;;;;;14.24;77.33;101857.34;4989717;28;20053;-49
2022/09/20 07:35:23;;;;;;;11.05;6.60;;;;;;;14.40;77.12;101854.75;4955586;28;20078;-44
2022/09/20 07:37:55;;;;;;;10.98;6.05;;;;;;;14.57;76.79;101862.88;4980518;28;20038;-45
2022/09/20 07:40:22;;;;;;;11.43;5.97;;;;;;;14.71;76.47;101852.25;4986097;28;20057;-56
2022/09/20 07:42:49;;;;;;;17.63;6.13;;;;;;;14.78;75.97;101863.63;4987531;28;20133;-52
2022/09/20 07:45:22;;;;;;;16.92;7.10;;;;;;;14.83;75.61;101859.78;4986282;28;20049;-54
2022/09/20 07:47:49;;;;;;;10.52;6.10;;;;;;;14.85;75.47;101861.06;4980527;28;20145;-53
2022/09/20 07:50:17;;;;;;;14.10;6.20;;;;;;;14.87;75.26;101861.56;4979349;28;20060;-53
2022/09/20 07:52:46;;;;;;;10.55;5.55;;;;;;;14.90;74.72;101857.25;4985072;28;20096;-57
2022/09/20 07:55:13;;;;;;;13.35;6.20;;;;;;;14.93;74.82;101860.16;4969454;28;20054;-53
2022/09/20 07:57:39;;;;;;;8.77;5.20;;;;;;;14.96;74.67;101862.25;4979180;28;20054;-59
2022/09/20 08:00:08;;;;;;;10.02;6.72;;;;;;;15.00;74.55;101854.81;4986138;28;20070;-53
2022/09/20 08:02:35;;;;;;;11.57;5.78;;;;;;;15.07;74.27;101860.63;4983298;28;20064;-58
2022/09/20 08:05:03;;;;;;;12.07;6.07;;;;;;;15.14;74.13;101860.06;4986276;28;20053;-55
2022/09/20 08:07:32;;;;;;;11.10;5.88;;;;;;;15.20;73.87;101867.81;4983140;28;20053;-51
2022/09/20 08:09:58;;;;;;;12.70;5.47;;;;;;;15.29;73.67;101862.13;4984775;28;20500;-58
2022/09/20 08:12:26;;;;;;;13.27;5.70;;;;;;;15.36;73.45;101867.13;4962945;28;20058;-55
2022/09/20 08:15:13;;;;;;;16.98;6.80;;;;;;;15.44;73.29;101869.78;4984042;28;20412;-57
2022/09/20 08:17:40;;;;;;;11.27;6.20;;;;;;;15.53;73.27;101869.69;4983522;28;20404;-51
2022/09/20 08:20:08;;;;;;;14.95;6.32;;;;;;;15.60;73.08;101872.69;4987449;28;20054;-55
2022/09/20 08:22:37;;;;;;;19.05;7.55;;;;;;;15.67;73.05;101879.31;4988024;28;20492;-55
2022/09/20 08:25:06;;;;;;;12.45;6.20;;;;;;;15.72;72.74;101878.28;4970932;28;20105;-54
2022/09/20 08:27:33;;;;;;;14.57;6.45;;;;;;;15.79;72.52;101878.47;4989203;28;20133;-57
2022/09/20 08:30:00;;;;;;;21.30;7.43;;;;;;;15.85;72.13;101871.50;4984708;28;20073;-54
2022/09/20 08:32:27;;;;;;;15.48;6.20;;;;;;;15.88;71.71;101873.56;4989097;28;20058;-49
2022/09/20 08:34:56;;;;;;;12.98;6.18;;;;;;;15.89;71.50;101880.78;4987506;28;20054;-53
2022/09/20 08:37:23;;;;;;;17.27;6.18;;;;;;;15.95;71.17;101876.56;4953504;28;20105;-54
2022/09/20 08:39:50;;;;;;;12.88;6.80;;;;;;;16.03;70.84;101878.41;4984841;28;20407;-53
2022/09/20 08:42:32;;;;;;;12.18;6.25;;;;;;;16.15;70.86;101877.56;4990177;28;20054;-55
2022/09/20 08:45:11;;;;;;;15.68;6.85;;;;;;;16.27;70.49;101881.09;4985351;28;20050;-51
2022/09/20 08:47:59;;;;;;;11.07;6.00;;;;;;;16.42;70.50;101874.72;4985236;28;20500;-54
2022/09/20 08:50:27;;;;;;;11.45;6.15;;;;;;;16.57;70.48;101872.38;4988777;28;20147;-56
2022/09/20 08:53:03;;;;;;;14.05;6.53;;;;;;;16.68;70.21;101871.47;4988954;28;20061;-53
2022/09/20 08:55:31;;;;;;;13.60;6.03;;;;;;;16.78;69.87;101876.53;4987081;28;20061;-51
2022/09/20 08:58:03;;;;;;;11.35;5.97;;;;;;;16.85;69.61;101878.69;4986573;28;20393;-56
2022/09/20 09:00:36;;;;;;;;;;;;;;;16.88;69.70;101877.97;4987207;28;21006;-50
2022/09/20 09:03:16;;;;;;;8.90;5.07;;;;;;;16.96;69.17;101879.78;4964881;28;20280;-54
2022/09/20 09:05:46;;;;;;;8.18;5.88;;;;;;;17.04;69.01;101873.19;4961455;28;20133;-49
2022/09/20 09:08:27;;;;;;;7.35;4.35;;;;;;;17.13;68.44;101884.22;4966000;28;20182;-51
2022/09/20 09:11:07;;;;;;;10.15;4.82;;;;;;;17.17;68.02;101879.50;4970044;28;20096;-54
2022/09/20 09:13:52;;;;;;;6.30;4.30;;;;;;;17.17;67.82;101880.31;4970891;28;20042;-55
2022/09/20 09:16:23;;;;;;;7.13;4.38;;;;;;;17.19;67.03;101883.56;4961859;28;20047;-52
2022/09/20 09:19:26;;;;;;;6.28;4.43;;;;;;;17.16;66.94;101892.69;4972451;28;20050;-52
2022/09/20 09:22:01;;;;;;;7.43;3.92;;;;;;;17.13;66.46;101901.00;4979084;28;20043;-54
2022/09/20 09:24:30;;;;;;;9.77;5.47;;;;;;;17.10;66.37;101891.34;4968081;28;20073;-52
2022/09/20 09:27:11;;;;;;;8.95;4.93;;;;;;;17.13;66.47;101896.19;4968505;28;20211;-56
2022/09/20 09:29:49;;;;;;;8.68;4.25;;;;;;;17.17;66.18;101902.72;4968312;28;20047;-51
2022/09/20 09:32:23;;;;;;;9.95;5.10;;;;;;;17.20;65.82;101902.00;4966605;28;20045;-54
2022/09/20 09:34:50;;;;;;;7.47;5.07;;;;;;;17.25;65.52;101909.28;4962575;28;20045;-53
2022/09/20 09:37:29;;;;;;;6.10;4.05;;;;;;;17.30;65.34;101898.63;4971492;28;20106;-55
2022/09/20 09:40:17;;;;;;;6.43;4.63;;;;;;;17.39;65.01;101899.28;4979045;28;20059;-51
2022/09/20 09:42:56;;;;;;;5.85;4.03;;;;;;;17.55;64.98;101897.25;4970607;28;20101;-56
2022/09/20 09:45:37;;;;;;;7.40;4.28;;;;;;;17.92;64.40;101891.31;4966122;28;20035;-50
2022/09/20 09:48:26;;;;;;;6.13;3.78;;;;;;;18.37;63.73;101894.25;4966954;28;20105;-54
2022/09/20 09:51:09;;;;;;;5.88;3.33;;;;;;;18.60;63.06;101897.13;4973282;28;20061;-54
2022/09/20 09:53:37;;;;;;;5.07;4.18;;;;;;;18.70;62.22;101890.91;4972601;28;20058;-53
2022/09/20 09:56:30;;;;;;;6.00;3.80;;;;;;;18.91;62.26;101887.66;4970743;28;20051;-55
2022/09/20 09:58:57;;;;;;;7.63;4.00;;;;;;;19.02;61.24;101895.09;4963288;28;20062;-51
2022/09/20 10:01:32;;;;;;;6.75;3.88;;;;;;;19.16;61.08;101889.72;4959968;28;20054;-51
2022/09/20 10:04:02;;;;;;;7.30;4.15;;;;;;;19.28;60.23;101892.31;4989571;28;20042;-55
2022/09/20 10:06:53;;;;;;;5.55;4.00;;;;;;;19.32;59.56;101890.38;4987275;28;20476;-55
2022/09/20 10:09:58;;;;;;;8.63;4.07;;;;;;;19.57;59.49;101892.78;4988226;28;20455;-54
2022/09/20 10:12:50;;;;;;;6.45;3.72;;;;;;;19.79;59.33;101891.91;4983217;28;20728;-56
2022/09/20 10:15:44;;;;;;;5.70;4.25;;;;;;;19.91;58.60;101895.28;4982374;28;20395;-56
2022/09/20 10:18:33;;;;;;;4.80;3.75;;;;;;;19.96;57.54;101894.16;4989533;28;20050;-51
2022/09/20 10:21:40;;;;;;;4.78;3.17;;;;;;;19.93;57.83;101898.53;4982293;28;20062;-54
2022/09/20 10:24:33;;;;;;;5.65;3.25;;;;;;;19.84;57.20;101900.00;4988782;28;20046;-44
2022/09/20 10:27:05;;;;;;;4.70;3.28;;;;;;;19.72;56.88;101901.06;4971381;28;20046;-47
2022/09/20 10:29:39;;;;;;;3.85;3.25;;;;;;;19.60;56.65;101901.25;4975380;28;20053;-46
2022/09/20 10:32:15;;;;;;;7.18;4.35;;;;;;;19.48;56.87;101909.94;4975161;28;20052;-46
2022/09/20 10:35:12;;;;;;;7.50;4.07;;;;;;;19.44;57.08;101903.41;4974089;28;20494;-45
2022/09/20 10:38:10;;;;;;;6.53;3.35;;;;;;;19.38;56.88;101904.91;4975396;28;20046;-44
2022/09/20 10:44:11;;;;;;;9.60;5.43;;;;;;;19.48;56.83;101909.09;4975593;28;20049;-45
2022/09/20 10:46:52;;;;;;;8.38;4.20;;;;;;;19.52;56.38;101898.72;4971664;28;20046;-50
2022/09/20 10:49:22;;;;;;;6.38;3.00;;;;;;;19.66;56.06;101902.56;4972290;28;20460;-50
2022/09/20 10:51:59;;;;;;;4.40;3.38;;;;;;;19.90;55.31;101898.50;4975144;28;20820;-45
2022/09/20 10:54:46;;;;;;;7.88;3.70;;;;;;;20.28;54.77;101894.59;4992184;28;20149;-48
2022/09/20 10:57:24;;;;;;;5.93;3.60;;;;;;;20.66;53.58;101888.59;4987786;28;20067;-46
2022/09/20 11:00:17;;;;;;;5.25;3.72;;;;;;;21.05;52.68;101894.59;4990097;28;20060;-49
2022/09/20 11:03:09;;;;;;;6.70;3.60;;;;;;;21.11;52.34;101902.31;4988766;28;20066;-46
2022/09/20 11:06:00;;;;;;;4.40;2.97;;;;;;;21.07;52.46;101892.25;4980409;28;20066;-43
2022/09/20 11:08:33;;;;;;;4.35;3.38;;;;;;;20.99;52.73;101896.16;4983947;28;20073;-43
2022/09/20 11:11:07;;;;;;;7.15;3.90;;;;;;;21.03;53.19;101888.53;4986718;28;20133;-44
2022/09/20 11:13:47;;;;;;;4.18;2.85;;;;;;;21.05;53.36;101891.75;4978689;28;20047;-49
2022/09/20 11:16:25;;;;;;;5.75;3.30;;;;;;;21.05;52.81;101892.56;4985374;28;20052;-48
2022/09/20 11:19:14;;;;;;;4.22;2.90;;;;;;;21.02;52.68;101893.34;4986013;28;20057;-45
2022/09/20 11:21:51;;;;;;;3.70;2.90;;;;;;;20.94;52.52;101894.47;4988081;28;20053;-45
2022/09/20 11:24:32;;;;;;;3.78;3.28;;;;;;;20.67;52.50;101893.03;4990269;28;20128;-44
2022/09/20 11:27:15;;;;;;;5.07;3.13;;;;;;;20.57;52.15;101888.09;4989675;28;20130;-47
2022/09/20 11:30:14;;;;;;;4.75;3.40;;;;;;;20.50;52.28;101888.00;4976520;28;20085;-47
2022/09/20 11:32:56;;;;;;;6.80;3.17;;;;;;;20.43;52.17;101874.69;4960363;28;20054;-49
2022/09/20 11:35:37;;;;;;;6.53;3.70;;;;;;;20.43;52.26;101880.31;4986006;28;20128;-47
2022/09/20 11:38:16;;;;;;;4.80;3.60;;;;;;;20.50;52.64;101876.75;4989850;28;20046;-46
2022/09/20 11:40:54;;;;;;;6.72;3.85;;;;;;;20.53;52.63;101876.00;4985970;28;20060;-49
2022/09/20 11:43:25;;;;;;;6.63;3.75;;;;;;;20.49;52.11;101880.78;4991345;28;20467;-45
2022/09/20 11:46:00;;;;;;;5.10;3.15;;;;;;;20.42;51.76;101875.88;4989885;28;20073;-46
2022/09/20 11:48:37;;;;;;;6.18;3.03;;;;;;;20.35;51.71;101872.19;4987891;28;20089;-45
2022/09/20 11:51:15;;;;;;;5.25;3.70;;;;;;;20.21;51.33;101878.41;4986426;28;20726;-45
2022/09/20 11:54:38;;;;;;;4.72;3.00;;;;;;;20.02;52.03;101873.75;4980720;28;20054;-48
2022/09/20 11:57:06;;;;;;;5.97;3.33;;;;;;;19.88;52.50;101873.56;4918619;29;20048;-45
2022/09/20 11:59:42;;;;;;;3.92;3.30;;;;;;;19.84;52.56;101878.34;4967039;28;20062;-45
2022/09/20 12:02:49;;;;;;;3.47;2.80;;;;;;;19.84;53.03;101874.72;4988034;28;20137;-44
2022/09/20 12:05:31;;;;;;;5.50;3.80;;;;;;;19.87;52.80;101863.53;4986521;28;20490;-46
2022/09/20 12:08:00;;;;;;;6.20;3.60;;;;;;;19.80;52.39;101860.59;4986493;28;20046;-44
2022/09/20 12:10:33;;;;;;;6.00;4.05;;;;;;;19.77;52.28;101867.00;4986803;28;20046;-45
2022/09/20 12:13:06;;;;;;;4.18;2.88;;;;;;;19.81;52.74;101862.22;4986406;28;20038;-43
2022/09/20 12:15:34;;;;;;;5.13;3.15;;;;;;;19.93;52.86;101853.56;4987848;28;20046;-44
2022/09/20 12:18:07;;;;;;;4.78;3.65;;;;;;;20.03;52.87;101864.13;4989528;28;20054;-45
2022/09/20 12:20:35;;;;;;;5.43;3.47;;;;;;;20.14;52.49;101863.44;4973716;28;20046;-45
2022/09/20 12:23:39;;;;;;;4.55;3.50;;;;;;;20.21;52.23;101860.72;4986224;28;20061;-44
2022/09/20 12:26:19;;;;;;;6.60;3.50;;;;;;;20.21;52.16;101852.28;4997249;28;20097;-46